createdAt,value
2018-02-27T00:00:52.027Z,49.30
2018-02-27T00:03:21.686Z,49.50
2018-02-27T00:05:50.951Z,49.40
2018-02-27T00:08:20.231Z,49.63
2018-02-27T00:10:49.959Z,49.24
2018-02-27T00:13:19.171Z,49.04
2018-02-27T00:15:48.870Z,49.08
2018-02-27T00:18:19.536Z,49.24
2018-02-27T00:20:48.787Z,49.35
2018-02-27T00:23:18.126Z,49.20
2018-02-27T00:25:50.052Z,49.30
2018-02-27T00:28:19.329Z,48.89
2018-02-27T00:30:48.563Z,49.23
2018-02-27T00:33:18.295Z,49.25
2018-02-27T00:35:48.358Z,48.96
2018-02-27T00:38:18.624Z,49.32
2018-02-27T00:40:48.227Z,48.96
2018-02-27T00:43:17.458Z,49.12
2018-02-27T00:45:47.324Z,49.00
2018-02-27T00:48:17.015Z,47.95
2018-02-27T00:50:46.259Z,48.17
2018-02-27T00:53:15.561Z,47.10
2018-02-27T00:55:45.415Z,46.23
2018-02-27T00:58:14.780Z,45.89
2018-02-27T01:00:44.131Z,45.97
2018-02-27T01:03:13.808Z,46.09
2018-02-27T01:05:43.029Z,46.07
2018-02-27T01:11:12.390Z,46.03
2018-02-27T01:13:41.590Z,45.95
2018-02-27T01:16:10.830Z,46.01
2018-02-27T01:18:40.575Z,46.29
2018-02-27T01:21:09.821Z,45.76
2018-02-27T01:23:39.120Z,45.50
2018-02-27T01:26:08.779Z,46.04
2018-02-27T01:28:38.100Z,46.53
2018-02-27T01:31:07.328Z,45.94
2018-02-27T01:33:37.125Z,45.88
2018-02-27T01:36:06.360Z,45.91
2018-02-27T01:38:35.673Z,45.99
2018-02-27T01:41:05.316Z,45.94
2018-02-27T01:43:34.535Z,45.42
2018-02-27T01:46:04.430Z,45.48
2018-02-27T01:48:34.193Z,45.75
2018-02-27T01:51:12.079Z,45.45
2018-02-27T01:53:41.327Z,45.41
2018-02-27T01:56:10.986Z,45.24
2018-02-27T01:58:40.274Z,45.52
2018-02-27T02:01:09.500Z,45.70
2018-02-27T02:03:40.173Z,45.79
2018-02-27T02:06:09.454Z,45.57
2018-02-27T02:08:38.803Z,45.13
2018-02-27T02:11:08.053Z,45.02
2018-02-27T02:13:37.422Z,44.68
2018-02-27T02:16:09.257Z,44.78
2018-02-27T02:18:38.644Z,44.97
2018-02-27T02:21:07.875Z,45.02
2018-02-27T02:23:37.623Z,44.87
2018-02-27T02:26:06.888Z,45.07
2018-02-27T02:28:36.268Z,44.75
2018-02-27T02:31:05.881Z,44.88
2018-02-27T02:33:35.208Z,45.07
2018-02-27T02:36:05.021Z,45.44
2018-02-27T02:38:34.350Z,45.17
2018-02-27T02:41:03.619Z,45.37
2018-02-27T02:43:33.426Z,45.09
2018-02-27T02:46:04.459Z,45.19
2018-02-27T02:48:33.703Z,45.19
2018-02-27T02:51:03.521Z,45.10
2018-02-27T02:53:32.734Z,45.00
2018-02-27T02:56:02.651Z,45.00
2018-02-27T02:58:32.313Z,44.85
2018-02-27T03:01:01.532Z,44.92
2018-02-27T03:03:30.759Z,45.24
2018-02-27T03:06:00.463Z,45.77
2018-02-27T03:08:29.794Z,45.74
2018-02-27T03:10:59.074Z,45.50
2018-02-27T03:13:28.710Z,45.50
2018-02-27T03:15:57.982Z,44.92
2018-02-27T03:18:27.215Z,44.97
2018-02-27T03:20:57.944Z,44.54
2018-02-27T03:23:27.194Z,44.78
2018-02-27T03:25:56.394Z,44.77
2018-02-27T03:28:25.954Z,44.88
2018-02-27T03:30:55.173Z,44.76
2018-02-27T03:33:24.386Z,44.54
2018-02-27T03:35:54.024Z,44.14
2018-02-27T03:38:23.265Z,44.50
2018-02-27T03:40:52.466Z,44.37
2018-02-27T03:43:23.159Z,44.25
2018-02-27T03:45:52.390Z,44.43
2018-02-27T03:48:21.651Z,44.05
2018-02-27T03:50:51.421Z,43.98
2018-02-27T03:53:20.756Z,43.96
2018-02-27T03:55:50.031Z,44.27
2018-02-27T04:00:59.216Z,44.27
2018-02-27T04:03:28.507Z,44.18
2018-02-27T04:05:58.415Z,44.94
2018-02-27T04:08:27.732Z,44.02
2018-02-27T04:10:57.012Z,43.93
2018-02-27T04:13:26.687Z,43.83
2018-02-27T04:15:55.964Z,43.92
2018-02-27T04:18:25.489Z,43.86
2018-02-27T04:20:55.114Z,44.14
2018-02-27T04:23:24.363Z,44.12
2018-02-27T04:25:53.624Z,44.41
2018-02-27T04:28:23.227Z,44.21
2018-02-27T04:30:52.450Z,44.64
2018-02-27T04:33:21.734Z,44.54
2018-02-27T04:35:50.960Z,45.06
2018-02-27T04:38:20.198Z,45.16
2018-02-27T04:40:49.748Z,45.62
2018-02-27T04:43:19.032Z,45.35
2018-02-27T04:45:48.238Z,45.87
2018-02-27T04:48:17.848Z,45.73
2018-02-27T04:50:48.085Z,46.00
2018-02-27T04:53:17.306Z,46.07
2018-02-27T04:55:47.114Z,46.74
2018-02-27T04:58:16.458Z,46.81
2018-02-27T05:00:45.687Z,47.19
2018-02-27T05:03:15.381Z,47.61
2018-02-27T05:05:44.599Z,48.24
2018-02-27T05:08:13.925Z,48.35
2018-02-27T05:10:43.512Z,48.73
2018-02-27T05:13:12.705Z,48.93
2018-02-27T05:15:41.943Z,51.59
2018-02-27T05:18:11.644Z,51.04
2018-02-27T05:20:40.901Z,50.26
2018-02-27T05:23:10.121Z,50.08
2018-02-27T05:25:39.862Z,49.43
2018-02-27T05:28:09.189Z,50.28
2018-02-27T05:30:39.454Z,50.16
2018-02-27T05:33:09.055Z,49.43
2018-02-27T05:35:38.451Z,49.73
2018-02-27T05:38:07.835Z,50.21
2018-02-27T05:40:37.672Z,50.53
2018-02-27T05:43:07.001Z,51.34
2018-02-27T05:45:36.778Z,50.98
2018-02-27T05:48:06.915Z,51.39
2018-02-27T05:50:36.295Z,51.90
2018-02-27T05:53:05.536Z,52.65
2018-02-27T05:55:35.063Z,52.81
2018-02-27T05:58:05.263Z,53.08
2018-02-27T06:00:34.507Z,53.54
2018-02-27T06:03:05.201Z,53.64
2018-02-27T06:05:34.447Z,53.70
2018-02-27T06:08:04.407Z,53.55
2018-02-27T06:10:34.043Z,53.44
2018-02-27T06:13:03.571Z,53.17
2018-02-27T06:15:32.861Z,52.60
2018-02-27T06:18:03.147Z,52.32
2018-02-27T06:20:32.412Z,51.84
2018-02-27T06:23:02.084Z,51.23
2018-02-27T06:25:31.908Z,50.87
2018-02-27T06:28:03.118Z,51.05
2018-02-27T06:30:32.365Z,51.30
2018-02-27T06:33:03.098Z,51.18
2018-02-27T06:35:32.410Z,50.70
2018-02-27T06:38:03.051Z,50.44
2018-02-27T06:40:32.679Z,50.24
2018-02-27T06:43:02.128Z,49.84
2018-02-27T06:45:31.346Z,49.82
2018-02-27T06:48:00.583Z,50.31
2018-02-27T06:50:30.005Z,49.75
2018-02-27T06:52:59.627Z,49.33
2018-02-27T06:55:28.890Z,49.36
2018-02-27T06:57:58.111Z,48.91
2018-02-27T07:00:27.406Z,48.86
2018-02-27T07:02:56.683Z,48.02
2018-02-27T07:05:26.339Z,47.33
2018-02-27T07:07:55.563Z,47.36
2018-02-27T07:10:24.846Z,47.65
2018-02-27T07:12:55.022Z,47.58
2018-02-27T07:15:24.252Z,46.72
2018-02-27T07:17:53.483Z,46.53
2018-02-27T07:20:23.084Z,46.03
2018-02-27T07:22:52.376Z,45.39
2018-02-27T07:25:21.607Z,45.20
2018-02-27T07:27:51.265Z,45.13
2018-02-27T07:30:20.514Z,45.02
2018-02-27T07:32:49.753Z,45.21
2018-02-27T07:35:19.505Z,45.27
2018-02-27T07:37:49.052Z,45.30
2018-02-27T07:40:18.286Z,45.02
2018-02-27T07:42:48.156Z,44.61
2018-02-27T07:45:17.431Z,44.90
2018-02-27T07:47:46.863Z,44.40
2018-02-27T07:50:16.586Z,44.05
2018-02-27T07:52:45.883Z,44.47
2018-02-27T07:55:15.131Z,44.39
2018-02-27T07:57:44.861Z,43.54
2018-02-27T08:00:14.117Z,42.94
2018-02-27T08:02:43.653Z,41.63
2018-02-27T08:05:13.462Z,40.17
2018-02-27T08:07:42.708Z,39.22
2018-02-27T08:10:11.957Z,38.92
2018-02-27T08:12:41.203Z,38.07
2018-02-27T08:15:10.502Z,36.68
2018-02-27T08:17:40.579Z,36.80
2018-02-27T08:20:10.470Z,36.30
2018-02-27T08:22:39.912Z,35.80
2018-02-27T08:25:09.847Z,35.04
2018-02-27T08:27:39.298Z,35.10
2018-02-27T08:30:09.370Z,34.83
2018-02-27T08:32:44.493Z,34.92
2018-02-27T08:35:17.065Z,34.67
2018-02-27T08:37:46.397Z,34.88
2018-02-27T08:40:15.978Z,34.41
2018-02-27T08:42:45.459Z,34.69
2018-02-27T08:45:14.698Z,34.10
2018-02-27T08:47:45.447Z,33.53
2018-02-27T08:50:14.816Z,34.23
2018-02-27T08:52:44.113Z,34.01
2018-02-27T08:55:13.883Z,33.70
2018-02-27T08:57:43.596Z,33.50
2018-02-27T09:00:12.858Z,33.15
2018-02-27T09:02:42.436Z,33.97
2018-02-27T09:05:11.727Z,34.36
2018-02-27T09:07:40.958Z,34.52
2018-02-27T09:10:10.525Z,34.48
2018-02-27T09:12:39.806Z,34.11
2018-02-27T09:15:09.051Z,33.60
2018-02-27T09:17:38.990Z,33.97
2018-02-27T09:20:08.240Z,33.71
2018-02-27T09:22:37.468Z,33.48
2018-02-27T09:25:06.736Z,32.54
2018-02-27T09:27:36.209Z,32.22
2018-02-27T09:30:06.797Z,31.62
2018-02-27T09:32:36.213Z,31.85
2018-02-27T09:35:05.502Z,31.70
2018-02-27T09:37:35.095Z,31.71
2018-02-27T09:40:05.304Z,31.56
2018-02-27T09:42:34.561Z,31.79
2018-02-27T09:45:04.377Z,31.71
2018-02-27T09:47:33.655Z,30.76
2018-02-27T09:50:03.687Z,31.02
2018-02-27T09:52:34.258Z,30.74
2018-02-27T09:55:03.913Z,30.15
2018-02-27T09:57:33.158Z,29.60
2018-02-27T10:00:04.706Z,29.40
2018-02-27T10:02:33.934Z,29.07
2018-02-27T10:05:03.380Z,28.88
2018-02-27T10:07:32.632Z,28.41
2018-02-27T10:10:02.883Z,28.44
2018-02-27T10:12:32.148Z,28.62
2018-02-27T10:15:01.420Z,28.22
2018-02-27T10:17:31.038Z,27.11
2018-02-27T10:20:00.244Z,26.84
2018-02-27T10:22:29.476Z,26.87
2018-02-27T10:24:58.698Z,27.32
2018-02-27T10:27:28.023Z,27.67
2018-02-27T10:29:57.585Z,27.43
2018-02-27T10:32:26.837Z,28.09
2018-02-27T10:34:56.303Z,27.76
2018-02-27T10:37:25.536Z,27.82
2018-02-27T10:39:54.831Z,27.94
2018-02-27T10:42:24.384Z,27.89
2018-02-27T10:44:53.674Z,27.72
2018-02-27T10:47:22.958Z,28.19
2018-02-27T10:49:52.215Z,28.47
2018-02-27T10:52:21.437Z,28.37
2018-02-27T10:54:51.563Z,28.18
2018-02-27T10:57:20.795Z,27.17
2018-02-27T10:59:50.006Z,26.62
2018-02-27T11:02:19.511Z,26.96
2018-02-27T11:04:48.807Z,26.40
2018-02-27T11:07:18.114Z,26.05
2018-02-27T11:09:49.771Z,25.48
2018-02-27T11:12:19.017Z,25.92
2018-02-27T11:14:48.274Z,25.38
2018-02-27T11:17:17.825Z,24.62
2018-02-27T11:19:47.688Z,24.83
2018-02-27T11:22:17.026Z,24.67
2018-02-27T11:24:46.763Z,24.72
2018-02-27T11:27:16.064Z,24.38
2018-02-27T11:29:45.323Z,24.52
2018-02-27T11:32:14.910Z,24.11
2018-02-27T11:34:44.538Z,23.82
2018-02-27T11:37:13.756Z,23.98
2018-02-27T11:39:43.336Z,23.85
2018-02-27T11:42:12.596Z,24.02
2018-02-27T11:44:41.947Z,24.19
2018-02-27T11:47:11.705Z,24.31
2018-02-27T11:49:40.966Z,23.65
2018-02-27T11:52:10.206Z,23.49
2018-02-27T11:54:39.959Z,23.35
2018-02-27T11:57:09.189Z,23.03
2018-02-27T11:59:38.592Z,23.55
2018-02-27T12:02:07.825Z,23.52
2018-02-27T12:04:37.134Z,23.46
2018-02-27T12:07:06.892Z,22.61
2018-02-27T12:09:36.205Z,22.70
2018-02-27T12:12:06.122Z,22.50
2018-02-27T12:14:35.684Z,22.83
2018-02-27T12:17:06.502Z,22.78
2018-02-27T12:19:35.978Z,22.94
2018-02-27T12:22:06.664Z,22.91
2018-02-27T12:24:36.000Z,22.57
2018-02-27T12:27:05.330Z,22.40
2018-02-27T12:29:36.008Z,21.40
2018-02-27T12:32:06.705Z,21.52
2018-02-27T12:34:36.026Z,21.18
2018-02-27T12:37:05.998Z,21.41
2018-02-27T12:39:35.295Z,21.51
2018-02-27T12:42:05.101Z,21.53
2018-02-27T12:44:34.837Z,21.19
2018-02-27T12:47:04.384Z,20.59
2018-02-27T12:49:33.607Z,20.69
2018-02-27T12:52:04.454Z,20.49
2018-02-27T12:54:33.819Z,20.05
2018-02-27T12:57:03.239Z,20.25
2018-02-27T12:59:33.023Z,20.30
2018-02-27T13:02:03.729Z,20.45
2018-02-27T13:04:32.998Z,20.02
2018-02-27T13:07:02.805Z,19.90
2018-02-27T13:09:32.074Z,19.51
2018-02-27T13:12:01.483Z,19.63
2018-02-27T13:14:30.771Z,19.48
2018-02-27T13:17:00.047Z,19.03
2018-02-27T13:19:29.887Z,19.01
2018-02-27T13:21:59.302Z,18.70
2018-02-27T13:24:28.765Z,18.18
2018-02-27T13:26:58.388Z,18.26
2018-02-27T13:29:27.792Z,18.17
2018-02-27T13:31:57.075Z,18.19
2018-02-27T13:34:26.778Z,18.06
2018-02-27T13:36:56.068Z,18.60
2018-02-27T13:39:25.405Z,18.94
2018-02-27T13:41:55.000Z,19.01
2018-02-27T13:44:24.271Z,19.15
2018-02-27T13:46:53.662Z,19.02
2018-02-27T13:49:25.041Z,19.00
2018-02-27T13:51:53.844Z,19.09
2018-02-27T13:54:23.487Z,19.16
2018-02-27T13:56:54.933Z,18.85
2018-02-27T13:59:24.473Z,18.93
2018-02-27T14:01:54.730Z,19.64
2018-02-27T14:04:24.483Z,19.74
2018-02-27T14:06:53.738Z,19.90
2018-02-27T14:09:23.230Z,20.24
2018-02-27T14:11:53.022Z,20.44
2018-02-27T14:14:22.335Z,20.41
2018-02-27T14:16:51.602Z,20.02
2018-02-27T14:19:21.259Z,20.17
2018-02-27T14:21:50.510Z,20.28
2018-02-27T14:24:19.935Z,20.42
2018-02-27T14:26:49.280Z,20.15
2018-02-27T14:29:18.559Z,19.99
2018-02-27T14:31:48.120Z,20.17
2018-02-27T14:34:17.347Z,20.05
2018-02-27T14:36:46.595Z,19.98
2018-02-27T14:39:15.836Z,20.09
2018-02-27T14:41:45.073Z,20.17
2018-02-27T14:44:14.654Z,20.09
2018-02-27T14:46:43.924Z,19.82
2018-02-27T14:49:13.177Z,20.14
2018-02-27T14:51:43.136Z,19.99
2018-02-27T14:54:12.393Z,20.15
2018-02-27T14:59:19.258Z,21.26
2018-02-27T15:01:48.775Z,21.39
2018-02-27T15:04:18.501Z,21.62
2018-02-27T15:06:47.810Z,21.93
2018-02-27T15:09:17.026Z,21.88
2018-02-27T15:11:46.552Z,22.36
2018-02-27T15:14:15.789Z,22.69
2018-02-27T15:16:45.066Z,22.99
2018-02-27T15:19:14.577Z,23.42
2018-02-27T15:21:43.864Z,23.39
2018-02-27T15:24:13.123Z,23.81
2018-02-27T15:26:42.803Z,23.88
2018-02-27T15:29:12.102Z,23.98
2018-02-27T15:31:41.348Z,24.06
2018-02-27T15:34:10.625Z,24.26
2018-02-27T15:36:40.137Z,24.51
2018-02-27T15:39:09.697Z,24.77
2018-02-27T15:41:39.079Z,24.49
2018-02-27T15:44:08.379Z,24.08
2018-02-27T15:46:38.176Z,24.05
2018-02-27T15:49:08.079Z,23.92
2018-02-27T15:51:37.523Z,23.54
2018-02-27T15:54:07.107Z,23.21
2018-02-27T15:56:36.464Z,23.36
2018-02-27T15:59:05.783Z,22.92
2018-02-27T16:01:35.463Z,23.18
2018-02-27T16:04:06.270Z,23.55
2018-02-27T16:06:35.554Z,24.01
2018-02-27T16:09:06.229Z,24.27
2018-02-27T16:11:35.719Z,24.23
2018-02-27T16:14:05.669Z,24.36
2018-02-27T16:16:35.261Z,24.42
2018-02-27T16:19:04.691Z,24.28
2018-02-27T16:21:34.033Z,24.81
2018-02-27T16:24:05.088Z,25.13
2018-02-27T16:26:34.305Z,25.74
2018-02-27T16:29:03.799Z,26.13
2018-02-27T16:31:33.423Z,26.24
2018-02-27T16:34:04.994Z,26.86
2018-02-27T16:36:34.258Z,27.45
2018-02-27T16:39:04.263Z,27.40
2018-02-27T16:41:33.494Z,27.88
2018-02-27T16:44:04.886Z,28.04
2018-02-27T16:46:34.154Z,28.12
2018-02-27T16:49:03.737Z,28.26
2018-02-27T16:51:33.277Z,28.50
2018-02-27T16:54:03.388Z,28.69
2018-02-27T16:56:32.713Z,28.72
2018-02-27T16:59:02.643Z,28.81
2018-02-27T17:01:31.914Z,28.91
2018-02-27T17:04:03.361Z,29.03
2018-02-27T17:06:32.895Z,29.20
2018-02-27T17:09:02.362Z,29.30
2018-02-27T17:11:31.605Z,29.59
2018-02-27T17:14:01.239Z,29.80
2018-02-27T17:16:30.472Z,29.92
2018-02-27T17:19:00.168Z,29.93
2018-02-27T17:21:29.764Z,30.02
2018-02-27T17:23:59.031Z,30.13
2018-02-27T17:26:28.287Z,30.56
2018-02-27T17:28:57.823Z,30.71
2018-02-27T17:31:27.110Z,30.49
2018-02-27T17:33:56.387Z,30.49
2018-02-27T17:36:25.946Z,30.66
2018-02-27T17:38:55.217Z,30.63
2018-02-27T17:41:24.441Z,30.63
2018-02-27T17:43:53.970Z,30.70
2018-02-27T17:46:23.194Z,30.78
2018-02-27T17:48:52.414Z,30.71
2018-02-27T17:51:21.994Z,30.83
2018-02-27T17:53:51.230Z,30.72
2018-02-27T17:56:20.489Z,30.62
2018-02-27T17:58:49.725Z,30.84
2018-02-27T18:01:18.997Z,30.98
2018-02-27T18:03:48.531Z,31.21
2018-02-27T18:06:17.936Z,31.38
2018-02-27T18:08:47.278Z,31.02
2018-02-27T18:11:16.546Z,31.11
2018-02-27T18:13:45.808Z,31.09
2018-02-27T18:16:15.384Z,31.15
2018-02-27T18:18:44.774Z,30.71
2018-02-27T18:21:14.050Z,30.66
2018-02-27T18:23:44.955Z,30.72
2018-02-27T18:26:14.340Z,31.05
2018-02-27T18:28:44.216Z,31.12
2018-02-27T18:31:14.065Z,31.09
2018-02-27T18:33:43.335Z,31.15
2018-02-27T18:36:12.896Z,31.04
2018-02-27T18:38:42.436Z,31.02
2018-02-27T18:41:11.750Z,31.03
2018-02-27T18:43:41.171Z,31.01
2018-02-27T18:46:10.514Z,31.13
2018-02-27T18:48:40.420Z,31.12
2018-02-27T18:51:09.706Z,31.21
2018-02-27T18:53:39.534Z,31.14
2018-02-27T18:56:08.796Z,31.26
2018-02-27T18:58:38.106Z,30.95
2018-02-27T19:01:07.690Z,31.23
2018-02-27T19:03:36.913Z,31.55
2018-02-27T19:06:06.179Z,31.64
2018-02-27T19:08:35.847Z,31.69
2018-02-27T19:11:05.605Z,31.79
2018-02-27T19:13:34.890Z,31.76
2018-02-27T19:16:06.142Z,31.54
2018-02-27T19:18:35.369Z,31.74
2018-02-27T19:21:04.675Z,31.68
2018-02-27T19:23:33.937Z,32.23
2018-02-27T19:26:04.157Z,31.74
2018-02-27T19:28:33.859Z,31.87
2018-02-27T19:31:03.270Z,31.96
2018-02-27T19:33:32.724Z,32.42
2018-02-27T19:36:03.855Z,32.69
2018-02-27T19:38:34.621Z,32.66
2018-02-27T19:41:34.439Z,33.05
2018-02-27T19:44:04.659Z,33.10
2018-02-27T19:46:33.893Z,33.30
2018-02-27T19:49:03.586Z,33.37
2018-02-27T19:51:32.969Z,33.41
2018-02-27T19:54:04.212Z,33.40
2018-02-27T19:56:33.451Z,33.67
2018-02-27T19:59:03.839Z,33.55
2018-02-27T20:01:33.067Z,33.70
2018-02-27T20:04:03.974Z,33.28
2018-02-27T20:06:33.233Z,33.32
2018-02-27T20:09:02.562Z,33.17
2018-02-27T20:11:31.885Z,33.13
2018-02-27T20:14:01.318Z,33.07
2018-02-27T20:16:31.107Z,33.35
2018-02-27T20:19:00.544Z,33.51
2018-02-27T20:21:29.832Z,33.41
2018-02-27T20:24:32.050Z,34.09
2018-02-27T20:27:01.462Z,34.53
2018-02-27T20:29:31.173Z,34.59
2018-02-27T20:32:00.562Z,34.96
2018-02-27T20:34:33.589Z,34.71
2018-02-27T20:37:03.213Z,34.51
2018-02-27T20:39:32.512Z,34.70
2018-02-27T20:42:03.538Z,35.08
2018-02-27T20:44:33.331Z,34.98
2018-02-27T20:47:02.618Z,34.83
2018-02-27T20:49:31.847Z,34.88
2018-02-27T20:52:03.455Z,35.16
2018-02-27T20:54:33.785Z,35.32
2018-02-27T20:57:03.500Z,35.45
2018-02-27T20:59:32.695Z,35.28
2018-02-27T21:02:03.362Z,35.80
2018-02-27T21:04:32.951Z,35.73
2018-02-27T21:07:02.422Z,35.78
2018-02-27T21:09:31.720Z,35.66
2018-02-27T21:12:01.391Z,35.86
2018-02-27T21:14:30.924Z,35.77
2018-02-27T21:17:00.634Z,36.29
2018-02-27T21:19:29.945Z,36.11
2018-02-27T21:21:59.489Z,36.33
2018-02-27T21:24:29.273Z,36.37
2018-02-27T21:26:58.566Z,36.32
2018-02-27T21:29:27.833Z,36.44
2018-02-27T21:31:57.533Z,36.40
2018-02-27T21:34:26.867Z,37.06
2018-02-27T21:36:56.536Z,36.59
2018-02-27T21:39:26.251Z,36.92
2018-02-27T21:41:55.557Z,36.82
2018-02-27T21:44:24.789Z,36.82
2018-02-27T21:46:54.403Z,36.85
2018-02-27T21:49:23.651Z,36.89
2018-02-27T21:51:52.892Z,37.12
2018-02-27T21:54:22.476Z,37.20
2018-02-27T21:56:51.719Z,36.96
2018-02-27T21:59:20.962Z,37.11
2018-02-27T22:01:50.790Z,37.10
2018-02-27T22:04:20.138Z,36.82
2018-02-27T22:06:49.493Z,36.79
2018-02-27T22:09:19.386Z,37.64
2018-02-27T22:11:49.016Z,37.66
2018-02-27T22:14:18.233Z,37.50
2018-02-27T22:16:47.973Z,36.80
2018-02-27T22:19:17.229Z,37.20
2018-02-27T22:21:48.638Z,37.05
2018-02-27T22:24:19.854Z,37.24
2018-02-27T22:26:51.848Z,37.18
2018-02-27T22:29:23.492Z,37.23
2018-02-27T22:31:55.322Z,37.04
2018-02-27T22:34:26.880Z,36.94
2018-02-27T22:36:58.500Z,37.08
2018-02-27T22:39:29.757Z,37.12
2018-02-27T22:42:01.227Z,37.47
2018-02-27T22:44:31.848Z,37.09
2018-02-27T22:47:03.333Z,36.85
2018-02-27T22:49:33.344Z,37.00
2018-02-27T22:52:03.118Z,36.85
2018-02-27T22:54:32.575Z,36.88
2018-02-27T22:57:02.663Z,36.77
2018-02-27T22:59:32.209Z,36.64
2018-02-27T23:02:02.163Z,36.85
2018-02-27T23:04:31.880Z,36.62
2018-02-27T23:07:01.234Z,36.59
2018-02-27T23:09:30.606Z,36.73
2018-02-27T23:11:59.813Z,36.79
2018-02-27T23:14:29.076Z,36.97
2018-02-27T23:16:58.784Z,36.58
2018-02-27T23:19:28.096Z,36.82
2018-02-27T23:21:57.354Z,36.94
2018-02-27T23:24:29.728Z,36.83
2018-02-27T23:27:03.095Z,36.83
2018-02-27T23:29:34.330Z,37.78
2018-02-27T23:32:08.929Z,37.24
2018-02-27T23:35:06.696Z,37.27
2018-02-27T23:37:36.003Z,37.38
2018-02-27T23:40:05.762Z,37.43
2018-02-27T23:42:35.415Z,37.58
2018-02-27T23:45:04.748Z,37.58
2018-02-27T23:47:34.004Z,37.84
2018-02-27T23:50:04.657Z,38.22
2018-02-27T23:52:33.905Z,38.44
2018-02-27T23:55:03.348Z,38.59
2018-02-27T23:57:33.015Z,38.95
